sensor_id;sensor_type;location;lat;lon;timestamp;temperature;humidity
17988;DHT22;9119;50.932;5.342;2023-01-29T00:00:36;1.20;99.90
17988;DHT22;9119;50.932;5.342;2023-01-29T00:03:02;1.30;99.90
17988;DHT22;9119;50.932;5.342;2023-01-29T00:05:28;1.40;99.90
17988;DHT22;9119;50.932;5.342;2023-01-29T00:07:54;1.00;99.90
17988;DHT22;9119;50.932;5.342;2023-01-29T00:10:21;0.90;99.90
17988;DHT22;9119;50.932;5.342;2023-01-29T00:12:46;0.60;99.90
17988;DHT22;9119;50.932;5.342;2023-01-29T00:15:12;0.70;99.90
17988;DHT22;9119;50.932;5.342;2023-01-29T00:17:38;0.90;99.90
17988;DHT22;9119;50.932;5.342;2023-01-29T00:20:03;1.20;99.90
17988;DHT22;9119;50.932;5.342;2023-01-29T00:22:29;1.10;99.90
17988;DHT22;9119;50.932;5.342;2023-01-29T00:24:55;0.90;99.90
17988;DHT22;9119;50.932;5.342;2023-01-29T00:27:21;1.00;99.90
17988;DHT22;9119;50.932;5.342;2023-01-29T00:29:46;1.00;99.90
17988;DHT22;9119;50.932;5.342;2023-01-29T00:32:32;0.90;99.90
17988;DHT22;9119;50.932;5.342;2023-01-29T00:34:58;1.10;99.90
17988;DHT22;9119;50.932;5.342;2023-01-29T00:37:23;1.00;99.90
17988;DHT22;9119;50.932;5.342;2023-01-29T00:39:49;0.80;99.90
17988;DHT22;9119;50.932;5.342;2023-01-29T00:42:15;0.60;99.90
17988;DHT22;9119;50.932;5.342;2023-01-29T00:44:59;0.60;99.90
17988;DHT22;9119;50.932;5.342;2023-01-29T00:47:26;0.50;99.90
17988;DHT22;9119;50.932;5.342;2023-01-29T00:49:59;0.40;99.90
17988;DHT22;9119;50.932;5.342;2023-01-29T00:52:25;0.60;99.90
17988;DHT22;9119;50.932;5.342;2023-01-29T00:54:53;0.60;99.90
17988;DHT22;9119;50.932;5.342;2023-01-29T00:57:19;0.80;99.90
17988;DHT22;9119;50.932;5.342;2023-01-29T00:59:45;0.80;99.90
17988;DHT22;9119;50.932;5.342;2023-01-29T01:02:10;0.80;99.90
17988;DHT22;9119;50.932;5.342;2023-01-29T01:04:55;0.60;99.90
17988;DHT22;9119;50.932;5.342;2023-01-29T01:07:20;0.60;99.90
17988;DHT22;9119;50.932;5.342;2023-01-29T01:09:46;0.60;99.90
17988;DHT22;9119;50.932;5.342;2023-01-29T01:12:31;0.90;99.90
17988;DHT22;9119;50.932;5.342;2023-01-29T01:14:57;1.10;99.90
17988;DHT22;9119;50.932;5.342;2023-01-29T01:17:23;1.00;99.90
17988;DHT22;9119;50.932;5.342;2023-01-29T01:19:48;1.00;99.90
17988;DHT22;9119;50.932;5.342;2023-01-29T01:22:14;0.80;99.90
17988;DHT22;9119;50.932;5.342;2023-01-29T01:24:40;0.70;99.90
17988;DHT22;9119;50.932;5.342;2023-01-29T01:27:06;0.80;99.90
17988;DHT22;9119;50.932;5.342;2023-01-29T01:29:31;0.70;99.90
17988;DHT22;9119;50.932;5.342;2023-01-29T01:31:57;0.40;99.90
17988;DHT22;9119;50.932;5.342;2023-01-29T01:34:24;0.30;99.90
17988;DHT22;9119;50.932;5.342;2023-01-29T01:36:52;0.00;99.90
17988;DHT22;9119;50.932;5.342;2023-01-29T01:39:18;0.20;99.90
17988;DHT22;9119;50.932;5.342;2023-01-29T01:41:43;0.30;99.90
17988;DHT22;9119;50.932;5.342;2023-01-29T01:47:12;0.30;99.90
17988;DHT22;9119;50.932;5.342;2023-01-29T01:49:39;0.50;99.90
17988;DHT22;9119;50.932;5.342;2023-01-29T01:52:04;0.50;99.90
17988;DHT22;9119;50.932;5.342;2023-01-29T01:54:31;0.50;99.90
17988;DHT22;9119;50.932;5.342;2023-01-29T01:57:06;0.30;99.90
17988;DHT22;9119;50.932;5.342;2023-01-29T01:59:42;0.50;99.90
17988;DHT22;9119;50.932;5.342;2023-01-29T02:02:11;0.40;99.90
17988;DHT22;9119;50.932;5.342;2023-01-29T02:04:56;0.60;99.90
17988;DHT22;9119;50.932;5.342;2023-01-29T02:07:46;0.70;99.90
17988;DHT22;9119;50.932;5.342;2023-01-29T02:10:43;1.30;99.90
17988;DHT22;9119;50.932;5.342;2023-01-29T02:13:10;1.20;99.90
17988;DHT22;9119;50.932;5.342;2023-01-29T02:15:36;1.30;99.90
17988;DHT22;9119;50.932;5.342;2023-01-29T02:18:16;1.10;99.90
17988;DHT22;9119;50.932;5.342;2023-01-29T02:21:13;0.90;99.90
17988;DHT22;9119;50.932;5.342;2023-01-29T02:23:58;0.90;99.90
17988;DHT22;9119;50.932;5.342;2023-01-29T02:41:25;0.20;99.90
17988;DHT22;9119;50.932;5.342;2023-01-29T02:44:05;0.30;99.90
17988;DHT22;9119;50.932;5.342;2023-01-29T02:47:08;0.30;99.90
17988;DHT22;9119;50.932;5.342;2023-01-29T02:49:49;0.20;99.90
17988;DHT22;9119;50.932;5.342;2023-01-29T02:52:32;0.00;99.90
17988;DHT22;9119;50.932;5.342;2023-01-29T02:55:11;0.00;99.90
17988;DHT22;9119;50.932;5.342;2023-01-29T02:57:40;-0.10;99.90
17988;DHT22;9119;50.932;5.342;2023-01-29T03:00:11;-0.10;99.90
17988;DHT22;9119;50.932;5.342;2023-01-29T03:02:44;-0.10;99.90
17988;DHT22;9119;50.932;5.342;2023-01-29T03:05:16;-0.10;99.90
17988;DHT22;9119;50.932;5.342;2023-01-29T03:07:52;0.00;99.90
17988;DHT22;9119;50.932;5.342;2023-01-29T03:10:30;0.00;99.90
17988;DHT22;9119;50.932;5.342;2023-01-29T03:15:54;0.20;99.90
17988;DHT22;9119;50.932;5.342;2023-01-29T03:18:30;0.20;99.90
17988;DHT22;9119;50.932;5.342;2023-01-29T03:21:08;0.20;99.90
17988;DHT22;9119;50.932;5.342;2023-01-29T03:23:56;0.00;99.90
17988;DHT22;9119;50.932;5.342;2023-01-29T03:26:42;-0.10;99.90
17988;DHT22;9119;50.932;5.342;2023-01-29T03:29:31;-0.20;99.90
17988;DHT22;9119;50.932;5.342;2023-01-29T03:32:17;-0.30;99.90
17988;DHT22;9119;50.932;5.342;2023-01-29T03:34:50;-0.20;99.90
17988;DHT22;9119;50.932;5.342;2023-01-29T03:37:41;-0.10;99.90
17988;DHT22;9119;50.932;5.342;2023-01-29T03:40:08;-0.30;99.90
17988;DHT22;9119;50.932;5.342;2023-01-29T03:43:35;-0.20;99.90
17988;DHT22;9119;50.932;5.342;2023-01-29T03:46:03;-0.30;99.90
17988;DHT22;9119;50.932;5.342;2023-01-29T03:49:00;-0.40;99.90
17988;DHT22;9119;50.932;5.342;2023-01-29T03:51:34;-0.50;99.90
17988;DHT22;9119;50.932;5.342;2023-01-29T03:54:14;-0.40;99.90
17988;DHT22;9119;50.932;5.342;2023-01-29T04:01:53;-0.80;99.90
17988;DHT22;9119;50.932;5.342;2023-01-29T04:04:29;-1.00;99.90
17988;DHT22;9119;50.932;5.342;2023-01-29T04:07:01;-0.90;99.90
17988;DHT22;9119;50.932;5.342;2023-01-29T04:12:09;-0.80;99.90
17988;DHT22;9119;50.932;5.342;2023-01-29T04:14:36;-0.80;99.90
17988;DHT22;9119;50.932;5.342;2023-01-29T04:17:13;-0.60;99.90
17988;DHT22;9119;50.932;5.342;2023-01-29T04:19:39;-0.80;99.90
17988;DHT22;9119;50.932;5.342;2023-01-29T04:22:13;-0.80;99.90
17988;DHT22;9119;50.932;5.342;2023-01-29T04:24:40;-0.80;99.90
17988;DHT22;9119;50.932;5.342;2023-01-29T04:38:10;-1.00;99.90
17988;DHT22;9119;50.932;5.342;2023-01-29T04:40:51;-1.20;99.90
17988;DHT22;9119;50.932;5.342;2023-01-29T04:43:25;-1.00;99.90
17988;DHT22;9119;50.932;5.342;2023-01-29T04:46:10;-1.20;99.90
17988;DHT22;9119;50.932;5.342;2023-01-29T04:57:24;-1.00;99.90
17988;DHT22;9119;50.932;5.342;2023-01-29T05:00:09;-1.00;99.90
17988;DHT22;9119;50.932;5.342;2023-01-29T05:02:40;-1.00;99.90
17988;DHT22;9119;50.932;5.342;2023-01-29T05:05:07;-1.00;99.90
17988;DHT22;9119;50.932;5.342;2023-01-29T05:07:36;-1.00;99.90
17988;DHT22;9119;50.932;5.342;2023-01-29T05:10:05;-0.80;99.90
17988;DHT22;9119;50.932;5.342;2023-01-29T05:12:32;-1.00;99.90
17988;DHT22;9119;50.932;5.342;2023-01-29T05:15:01;-1.10;99.90
17988;DHT22;9119;50.932;5.342;2023-01-29T05:17:27;-1.10;99.90
17988;DHT22;9119;50.932;5.342;2023-01-29T05:19:54;-1.00;99.90
17988;DHT22;9119;50.932;5.342;2023-01-29T05:22:22;-1.00;99.90
17988;DHT22;9119;50.932;5.342;2023-01-29T05:24:49;-1.00;99.90
17988;DHT22;9119;50.932;5.342;2023-01-29T05:27:20;-1.10;99.90
17988;DHT22;9119;50.932;5.342;2023-01-29T05:30:06;-1.10;99.90
17988;DHT22;9119;50.932;5.342;2023-01-29T05:32:32;-1.30;99.90
17988;DHT22;9119;50.932;5.342;2023-01-29T05:34:57;-1.40;99.90
17988;DHT22;9119;50.932;5.342;2023-01-29T05:37:23;-1.20;99.90
17988;DHT22;9119;50.932;5.342;2023-01-29T05:39:49;-1.30;99.90
17988;DHT22;9119;50.932;5.342;2023-01-29T05:42:14;-1.30;99.90
17988;DHT22;9119;50.932;5.342;2023-01-29T05:44:40;-1.20;99.90
17988;DHT22;9119;50.932;5.342;2023-01-29T05:47:06;-1.30;99.90
17988;DHT22;9119;50.932;5.342;2023-01-29T05:49:32;-1.20;99.90
17988;DHT22;9119;50.932;5.342;2023-01-29T05:51:57;-1.40;99.90
17988;DHT22;9119;50.932;5.342;2023-01-29T05:54:23;-1.40;99.90
17988;DHT22;9119;50.932;5.342;2023-01-29T05:56:48;-1.50;99.90
17988;DHT22;9119;50.932;5.342;2023-01-29T05:59:15;-1.50;99.90
17988;DHT22;9119;50.932;5.342;2023-01-29T06:01:40;-1.40;99.90
17988;DHT22;9119;50.932;5.342;2023-01-29T06:04:06;-1.40;99.90
17988;DHT22;9119;50.932;5.342;2023-01-29T06:06:32;-1.40;99.90
17988;DHT22;9119;50.932;5.342;2023-01-29T06:08:58;-1.30;99.90
17988;DHT22;9119;50.932;5.342;2023-01-29T06:11:24;-1.20;99.90
17988;DHT22;9119;50.932;5.342;2023-01-29T06:13:49;-1.20;99.90
17988;DHT22;9119;50.932;5.342;2023-01-29T06:16:15;-1.10;99.90
17988;DHT22;9119;50.932;5.342;2023-01-29T06:18:41;-1.10;99.90
17988;DHT22;9119;50.932;5.342;2023-01-29T06:21:09;-1.10;99.90
17988;DHT22;9119;50.932;5.342;2023-01-29T06:23:35;-1.20;99.90
17988;DHT22;9119;50.932;5.342;2023-01-29T06:26:04;-1.00;99.90
17988;DHT22;9119;50.932;5.342;2023-01-29T06:28:30;-1.00;99.90
17988;DHT22;9119;50.932;5.342;2023-01-29T06:30:56;-1.00;99.90
17988;DHT22;9119;50.932;5.342;2023-01-29T06:33:23;-0.90;99.90
17988;DHT22;9119;50.932;5.342;2023-01-29T06:35:53;-1.00;99.90
17988;DHT22;9119;50.932;5.342;2023-01-29T06:38:19;-0.90;99.90
17988;DHT22;9119;50.932;5.342;2023-01-29T06:40:45;-0.90;99.90
17988;DHT22;9119;50.932;5.342;2023-01-29T06:43:10;-0.80;99.90
17988;DHT22;9119;50.932;5.342;2023-01-29T06:45:36;-0.70;99.90
17988;DHT22;9119;50.932;5.342;2023-01-29T06:48:02;-0.70;99.90
17988;DHT22;9119;50.932;5.342;2023-01-29T06:50:27;-0.80;99.90
17988;DHT22;9119;50.932;5.342;2023-01-29T06:52:53;-0.70;99.90
17988;DHT22;9119;50.932;5.342;2023-01-29T06:55:19;-0.60;99.90
17988;DHT22;9119;50.932;5.342;2023-01-29T06:57:44;-0.50;99.90
17988;DHT22;9119;50.932;5.342;2023-01-29T07:00:10;-0.50;99.90
17988;DHT22;9119;50.932;5.342;2023-01-29T07:02:36;-0.50;99.90
17988;DHT22;9119;50.932;5.342;2023-01-29T07:05:02;-0.50;99.90
17988;DHT22;9119;50.932;5.342;2023-01-29T07:07:28;-0.50;99.90
17988;DHT22;9119;50.932;5.342;2023-01-29T07:09:53;-0.60;99.90
17988;DHT22;9119;50.932;5.342;2023-01-29T07:12:19;-0.60;99.90
17988;DHT22;9119;50.932;5.342;2023-01-29T07:14:45;-0.70;99.90
17988;DHT22;9119;50.932;5.342;2023-01-29T07:17:10;-0.70;99.90
17988;DHT22;9119;50.932;5.342;2023-01-29T07:19:36;-0.60;99.90
17988;DHT22;9119;50.932;5.342;2023-01-29T07:22:02;-0.60;99.90
17988;DHT22;9119;50.932;5.342;2023-01-29T07:24:28;-0.50;99.90
17988;DHT22;9119;50.932;5.342;2023-01-29T07:26:54;-0.50;99.90
17988;DHT22;9119;50.932;5.342;2023-01-29T07:29:20;-0.50;99.90
17988;DHT22;9119;50.932;5.342;2023-01-29T07:31:45;-0.60;99.90
17988;DHT22;9119;50.932;5.342;2023-01-29T07:34:11;-0.60;99.90
17988;DHT22;9119;50.932;5.342;2023-01-29T07:36:36;-0.50;99.90
17988;DHT22;9119;50.932;5.342;2023-01-29T07:39:02;-0.40;99.90
17988;DHT22;9119;50.932;5.342;2023-01-29T07:41:28;-0.40;99.90
17988;DHT22;9119;50.932;5.342;2023-01-29T07:43:53;-0.40;99.90
17988;DHT22;9119;50.932;5.342;2023-01-29T07:46:19;-0.50;99.90
17988;DHT22;9119;50.932;5.342;2023-01-29T07:48:45;-0.40;99.90
17988;DHT22;9119;50.932;5.342;2023-01-29T07:51:10;-0.50;99.90
17988;DHT22;9119;50.932;5.342;2023-01-29T07:53:36;-0.50;99.90
17988;DHT22;9119;50.932;5.342;2023-01-29T07:56:02;-0.40;99.90
17988;DHT22;9119;50.932;5.342;2023-01-29T07:58:28;-0.40;99.90
17988;DHT22;9119;50.932;5.342;2023-01-29T08:00:54;-0.30;99.90
17988;DHT22;9119;50.932;5.342;2023-01-29T08:03:19;-0.40;99.90
17988;DHT22;9119;50.932;5.342;2023-01-29T08:05:45;-0.30;99.90
17988;DHT22;9119;50.932;5.342;2023-01-29T08:08:11;-0.10;99.90
17988;DHT22;9119;50.932;5.342;2023-01-29T08:10:39;-0.30;99.90
17988;DHT22;9119;50.932;5.342;2023-01-29T08:13:05;-0.40;99.90
17988;DHT22;9119;50.932;5.342;2023-01-29T08:15:32;-0.20;99.90
17988;DHT22;9119;50.932;5.342;2023-01-29T08:18:00;-0.30;99.90
17988;DHT22;9119;50.932;5.342;2023-01-29T08:20:26;-0.30;99.90
17988;DHT22;9119;50.932;5.342;2023-01-29T08:23:02;-0.30;99.90
17988;DHT22;9119;50.932;5.342;2023-01-29T08:25:29;-0.20;99.90
17988;DHT22;9119;50.932;5.342;2023-01-29T08:27:58;-0.30;99.90
17988;DHT22;9119;50.932;5.342;2023-01-29T08:30:30;-0.20;99.90
17988;DHT22;9119;50.932;5.342;2023-01-29T08:32:56;-0.10;99.90
17988;DHT22;9119;50.932;5.342;2023-01-29T08:35:22;0.00;99.90
17988;DHT22;9119;50.932;5.342;2023-01-29T08:37:54;0.00;99.90
17988;DHT22;9119;50.932;5.342;2023-01-29T08:40:21;-0.10;99.90
17988;DHT22;9119;50.932;5.342;2023-01-29T08:42:47;-0.20;99.90
17988;DHT22;9119;50.932;5.342;2023-01-29T08:45:12;-0.30;99.90
17988;DHT22;9119;50.932;5.342;2023-01-29T08:47:47;-0.20;99.90
17988;DHT22;9119;50.932;5.342;2023-01-29T08:50:14;-0.10;99.90
17988;DHT22;9119;50.932;5.342;2023-01-29T08:52:41;-0.10;99.90
17988;DHT22;9119;50.932;5.342;2023-01-29T08:55:07;-0.10;99.90
17988;DHT22;9119;50.932;5.342;2023-01-29T08:57:33;0.00;99.90
17988;DHT22;9119;50.932;5.342;2023-01-29T08:59:58;0.10;99.90
17988;DHT22;9119;50.932;5.342;2023-01-29T09:02:24;-0.10;99.90
17988;DHT22;9119;50.932;5.342;2023-01-29T09:04:50;-0.10;99.90
17988;DHT22;9119;50.932;5.342;2023-01-29T09:07:15;0.00;99.90
17988;DHT22;9119;50.932;5.342;2023-01-29T09:09:41;0.10;99.90
17988;DHT22;9119;50.932;5.342;2023-01-29T09:12:07;0.20;99.90
17988;DHT22;9119;50.932;5.342;2023-01-29T09:14:32;0.10;99.90
17988;DHT22;9119;50.932;5.342;2023-01-29T09:16:58;0.20;99.90
17988;DHT22;9119;50.932;5.342;2023-01-29T09:19:24;0.30;99.90
17988;DHT22;9119;50.932;5.342;2023-01-29T09:21:49;0.30;99.90
17988;DHT22;9119;50.932;5.342;2023-01-29T09:24:15;0.30;99.90
17988;DHT22;9119;50.932;5.342;2023-01-29T09:26:41;0.20;99.90
17988;DHT22;9119;50.932;5.342;2023-01-29T09:29:09;0.20;99.90
17988;DHT22;9119;50.932;5.342;2023-01-29T09:31:34;0.20;99.90
17988;DHT22;9119;50.932;5.342;2023-01-29T09:34:00;0.40;99.90
17988;DHT22;9119;50.932;5.342;2023-01-29T09:36:26;0.50;99.90
17988;DHT22;9119;50.932;5.342;2023-01-29T09:38:51;0.60;99.90
17988;DHT22;9119;50.932;5.342;2023-01-29T09:44:03;0.80;99.90
17988;DHT22;9119;50.932;5.342;2023-01-29T09:46:43;0.90;99.90
17988;DHT22;9119;50.932;5.342;2023-01-29T09:49:30;1.00;99.90
17988;DHT22;9119;50.932;5.342;2023-01-29T09:52:05;1.10;99.90
17988;DHT22;9119;50.932;5.342;2023-01-29T09:54:35;1.10;99.90
17988;DHT22;9119;50.932;5.342;2023-01-29T09:57:09;1.10;99.90
17988;DHT22;9119;50.932;5.342;2023-01-29T09:59:39;1.00;99.90
17988;DHT22;9119;50.932;5.342;2023-01-29T10:02:58;1.00;99.90
17988;DHT22;9119;50.932;5.342;2023-01-29T10:13:28;1.50;99.90
17988;DHT22;9119;50.932;5.342;2023-01-29T10:19:33;1.50;99.90
17988;DHT22;9119;50.932;5.342;2023-01-29T10:24:57;1.70;99.90
17988;DHT22;9119;50.932;5.342;2023-01-29T10:27:32;1.70;99.90
17988;DHT22;9119;50.932;5.342;2023-01-29T10:30:01;1.60;99.90
17988;DHT22;9119;50.932;5.342;2023-01-29T10:32:29;1.70;99.90
17988;DHT22;9119;50.932;5.342;2023-01-29T10:35:03;1.60;99.90
17988;DHT22;9119;50.932;5.342;2023-01-29T10:37:42;1.60;99.90
17988;DHT22;9119;50.932;5.342;2023-01-29T10:40:20;1.60;99.90
17988;DHT22;9119;50.932;5.342;2023-01-29T10:45:25;1.90;99.90
17988;DHT22;9119;50.932;5.342;2023-01-29T10:51:05;1.70;99.90
17988;DHT22;9119;50.932;5.342;2023-01-29T10:56:58;1.70;99.90
17988;DHT22;9119;50.932;5.342;2023-01-29T10:59:59;1.70;99.90
17988;DHT22;9119;50.932;5.342;2023-01-29T11:02:25;1.70;99.90
17988;DHT22;9119;50.932;5.342;2023-01-29T11:04:51;1.90;99.90
17988;DHT22;9119;50.932;5.342;2023-01-29T11:07:18;1.80;99.90
17988;DHT22;9119;50.932;5.342;2023-01-29T11:10:10;1.90;99.90
17988;DHT22;9119;50.932;5.342;2023-01-29T11:12:38;1.80;99.90
17988;DHT22;9119;50.932;5.342;2023-01-29T11:18:06;2.00;99.90
17988;DHT22;9119;50.932;5.342;2023-01-29T11:20:36;2.00;99.90
17988;DHT22;9119;50.932;5.342;2023-01-29T11:23:02;2.10;99.90
17988;DHT22;9119;50.932;5.342;2023-01-29T11:25:28;2.10;99.90
17988;DHT22;9119;50.932;5.342;2023-01-29T11:27:58;2.20;99.90
17988;DHT22;9119;50.932;5.342;2023-01-29T11:30:38;2.40;99.90
17988;DHT22;9119;50.932;5.342;2023-01-29T11:35:34;2.40;99.90
17988;DHT22;9119;50.932;5.342;2023-01-29T11:38:20;2.10;99.90
17988;DHT22;9119;50.932;5.342;2023-01-29T11:40:47;2.00;99.90
17988;DHT22;9119;50.932;5.342;2023-01-29T11:46:13;2.10;99.90
17988;DHT22;9119;50.932;5.342;2023-01-29T11:51:05;2.20;99.90
17988;DHT22;9119;50.932;5.342;2023-01-29T11:53:36;2.30;99.90
17988;DHT22;9119;50.932;5.342;2023-01-29T11:56:15;2.20;99.90
17988;DHT22;9119;50.932;5.342;2023-01-29T11:58:42;2.20;99.90
17988;DHT22;9119;50.932;5.342;2023-01-29T12:01:09;2.30;99.90
17988;DHT22;9119;50.932;5.342;2023-01-29T12:03:40;2.30;99.90
17988;DHT22;9119;50.932;5.342;2023-01-29T12:06:20;2.30;99.90
17988;DHT22;9119;50.932;5.342;2023-01-29T12:08:59;2.40;99.90
17988;DHT22;9119;50.932;5.342;2023-01-29T12:11:33;2.50;99.90
17988;DHT22;9119;50.932;5.342;2023-01-29T12:14:05;2.40;99.90
17988;DHT22;9119;50.932;5.342;2023-01-29T12:19:44;2.40;99.90
17988;DHT22;9119;50.932;5.342;2023-01-29T12:22:16;2.60;99.90
17988;DHT22;9119;50.932;5.342;2023-01-29T12:24:58;2.60;99.90
17988;DHT22;9119;50.932;5.342;2023-01-29T12:27:37;2.50;99.90
17988;DHT22;9119;50.932;5.342;2023-01-29T12:33:59;2.40;99.90
17988;DHT22;9119;50.932;5.342;2023-01-29T12:36:12;2.50;99.90
17988;DHT22;9119;50.932;5.342;2023-01-29T12:38:40;2.80;99.90
17988;DHT22;9119;50.932;5.342;2023-01-29T12:44:20;2.70;99.90
17988;DHT22;9119;50.932;5.342;2023-01-29T12:46:53;2.80;99.90
17988;DHT22;9119;50.932;5.342;2023-01-29T12:49:23;2.90;99.90
17988;DHT22;9119;50.932;5.342;2023-01-29T12:52:27;3.00;99.90
17988;DHT22;9119;50.932;5.342;2023-01-29T12:54:59;3.10;99.90
17988;DHT22;9119;50.932;5.342;2023-01-29T12:57:40;3.10;99.90
17988;DHT22;9119;50.932;5.342;2023-01-29T13:00:23;3.00;99.90
17988;DHT22;9119;50.932;5.342;2023-01-29T13:02:58;2.80;99.90
17988;DHT22;9119;50.932;5.342;2023-01-29T13:05:59;2.90;99.90
17988;DHT22;9119;50.932;5.342;2023-01-29T13:08:40;3.00;99.90
17988;DHT22;9119;50.932;5.342;2023-01-29T13:11:20;3.00;99.90
17988;DHT22;9119;50.932;5.342;2023-01-29T13:13:54;3.00;99.90
17988;DHT22;9119;50.932;5.342;2023-01-29T13:16:25;3.10;99.90
17988;DHT22;9119;50.932;5.342;2023-01-29T13:19:02;3.20;99.90
17988;DHT22;9119;50.932;5.342;2023-01-29T13:21:40;3.50;99.90
17988;DHT22;9119;50.932;5.342;2023-01-29T13:24:19;3.50;99.90
17988;DHT22;9119;50.932;5.342;2023-01-29T13:26:49;3.50;99.90
17988;DHT22;9119;50.932;5.342;2023-01-29T13:29:23;3.50;99.90
17988;DHT22;9119;50.932;5.342;2023-01-29T13:31:54;3.50;99.90
17988;DHT22;9119;50.932;5.342;2023-01-29T13:37:30;3.50;99.90
17988;DHT22;9119;50.932;5.342;2023-01-29T13:39:57;3.50;99.90
17988;DHT22;9119;50.932;5.342;2023-01-29T13:42:45;3.50;99.90
17988;DHT22;9119;50.932;5.342;2023-01-29T13:48:25;3.40;99.90
17988;DHT22;9119;50.932;5.342;2023-01-29T13:50:55;3.40;99.90
17988;DHT22;9119;50.932;5.342;2023-01-29T13:53:28;3.50;99.90
17988;DHT22;9119;50.932;5.342;2023-01-29T13:58:57;3.40;99.90
17988;DHT22;9119;50.932;5.342;2023-01-29T14:06:52;3.40;99.90
17988;DHT22;9119;50.932;5.342;2023-01-29T14:09:34;3.40;99.90
17988;DHT22;9119;50.932;5.342;2023-01-29T14:17:17;3.60;99.90
17988;DHT22;9119;50.932;5.342;2023-01-29T14:20:17;3.60;99.90
17988;DHT22;9119;50.932;5.342;2023-01-29T14:22:53;3.60;99.90
17988;DHT22;9119;50.932;5.342;2023-01-29T14:25:23;3.60;99.90
17988;DHT22;9119;50.932;5.342;2023-01-29T14:27:52;3.60;99.90
17988;DHT22;9119;50.932;5.342;2023-01-29T14:30:27;3.60;99.90
17988;DHT22;9119;50.932;5.342;2023-01-29T14:32:54;3.60;99.90
17988;DHT22;9119;50.932;5.342;2023-01-29T14:35:23;3.60;99.90
17988;DHT22;9119;50.932;5.342;2023-01-29T14:37:52;3.80;99.90
17988;DHT22;9119;50.932;5.342;2023-01-29T14:42:55;3.60;99.90
17988;DHT22;9119;50.932;5.342;2023-01-29T14:45:28;3.60;99.90
17988;DHT22;9119;50.932;5.342;2023-01-29T14:52:59;3.50;99.90
17988;DHT22;9119;50.932;5.342;2023-01-29T14:55:39;3.50;99.90
17988;DHT22;9119;50.932;5.342;2023-01-29T14:58:14;3.60;99.90
17988;DHT22;9119;50.932;5.342;2023-01-29T15:00:43;3.60;99.90
17988;DHT22;9119;50.932;5.342;2023-01-29T15:03:19;3.50;99.90
17988;DHT22;9119;50.932;5.342;2023-01-29T15:05:50;3.60;99.90
17988;DHT22;9119;50.932;5.342;2023-01-29T15:08:39;3.60;99.90
17988;DHT22;9119;50.932;5.342;2023-01-29T15:11:14;3.70;99.90
17988;DHT22;9119;50.932;5.342;2023-01-29T15:14:25;3.80;99.90
17988;DHT22;9119;50.932;5.342;2023-01-29T15:19:40;3.70;99.90
17988;DHT22;9119;50.932;5.342;2023-01-29T15:22:13;3.90;99.90
17988;DHT22;9119;50.932;5.342;2023-01-29T15:24:41;3.70;99.90
17988;DHT22;9119;50.932;5.342;2023-01-29T15:27:16;3.60;99.90
17988;DHT22;9119;50.932;5.342;2023-01-29T15:30:03;3.60;99.90
17988;DHT22;9119;50.932;5.342;2023-01-29T15:32:35;3.70;99.90
17988;DHT22;9119;50.932;5.342;2023-01-29T15:35:28;3.60;99.90
17988;DHT22;9119;50.932;5.342;2023-01-29T15:38:13;3.60;99.90
17988;DHT22;9119;50.932;5.342;2023-01-29T15:41:01;3.50;99.90
17988;DHT22;9119;50.932;5.342;2023-01-29T15:43:33;3.60;99.90
17988;DHT22;9119;50.932;5.342;2023-01-29T15:46:21;3.60;99.90
17988;DHT22;9119;50.932;5.342;2023-01-29T15:48:50;3.70;99.90
17988;DHT22;9119;50.932;5.342;2023-01-29T15:51:20;3.60;99.90
17988;DHT22;9119;50.932;5.342;2023-01-29T15:54:01;3.70;99.90
17988;DHT22;9119;50.932;5.342;2023-01-29T15:56:39;3.60;99.90
17988;DHT22;9119;50.932;5.342;2023-01-29T15:59:07;3.50;99.90
17988;DHT22;9119;50.932;5.342;2023-01-29T16:01:39;3.50;99.90
17988;DHT22;9119;50.932;5.342;2023-01-29T16:04:05;3.50;99.90
17988;DHT22;9119;50.932;5.342;2023-01-29T16:06:38;3.40;99.90
17988;DHT22;9119;50.932;5.342;2023-01-29T16:09:05;3.50;99.90
17988;DHT22;9119;50.932;5.342;2023-01-29T16:11:33;3.50;99.90
17988;DHT22;9119;50.932;5.342;2023-01-29T16:13:59;3.60;99.90
17988;DHT22;9119;50.932;5.342;2023-01-29T16:16:26;3.50;99.90
17988;DHT22;9119;50.932;5.342;2023-01-29T16:18:53;3.40;99.90
17988;DHT22;9119;50.932;5.342;2023-01-29T16:21:43;3.50;99.90
17988;DHT22;9119;50.932;5.342;2023-01-29T16:24:13;3.50;99.90
17988;DHT22;9119;50.932;5.342;2023-01-29T16:26:48;3.40;99.90
17988;DHT22;9119;50.932;5.342;2023-01-29T16:29:17;3.50;99.90
17988;DHT22;9119;50.932;5.342;2023-01-29T16:31:44;3.40;99.90
17988;DHT22;9119;50.932;5.342;2023-01-29T16:34:30;3.30;99.90
17988;DHT22;9119;50.932;5.342;2023-01-29T16:36:59;3.30;99.90
17988;DHT22;9119;50.932;5.342;2023-01-29T16:39:37;3.30;99.90
17988;DHT22;9119;50.932;5.342;2023-01-29T16:47:39;3.30;99.90
17988;DHT22;9119;50.932;5.342;2023-01-29T16:50:34;3.40;99.90
17988;DHT22;9119;50.932;5.342;2023-01-29T16:53:18;3.40;99.90
17988;DHT22;9119;50.932;5.342;2023-01-29T16:55:47;3.50;99.90
17988;DHT22;9119;50.932;5.342;2023-01-29T16:58:17;3.50;99.90
17988;DHT22;9119;50.932;5.342;2023-01-29T17:00:49;3.40;99.90
17988;DHT22;9119;50.932;5.342;2023-01-29T17:03:17;3.30;99.90
17988;DHT22;9119;50.932;5.342;2023-01-29T17:05:45;3.40;99.90
17988;DHT22;9119;50.932;5.342;2023-01-29T17:10:48;3.30;99.90
17988;DHT22;9119;50.932;5.342;2023-01-29T17:13:28;3.30;99.90
17988;DHT22;9119;50.932;5.342;2023-01-29T17:16:00;3.20;99.90
17988;DHT22;9119;50.932;5.342;2023-01-29T17:18:29;3.30;99.90
17988;DHT22;9119;50.932;5.342;2023-01-29T17:20:55;3.30;99.90
17988;DHT22;9119;50.932;5.342;2023-01-29T17:23:21;3.60;99.90
17988;DHT22;9119;50.932;5.342;2023-01-29T17:25:48;3.30;99.90
17988;DHT22;9119;50.932;5.342;2023-01-29T17:28:15;3.30;99.90
17988;DHT22;9119;50.932;5.342;2023-01-29T17:30:42;3.30;99.90
17988;DHT22;9119;50.932;5.342;2023-01-29T17:33:13;3.40;99.90
17988;DHT22;9119;50.932;5.342;2023-01-29T17:35:39;3.40;99.90
17988;DHT22;9119;50.932;5.342;2023-01-29T17:38:17;3.30;99.90
17988;DHT22;9119;50.932;5.342;2023-01-29T17:41:06;3.30;99.90
17988;DHT22;9119;50.932;5.342;2023-01-29T17:43:33;3.40;99.90
17988;DHT22;9119;50.932;5.342;2023-01-29T17:45:59;3.50;99.90
17988;DHT22;9119;50.932;5.342;2023-01-29T17:48:27;3.70;99.90
17988;DHT22;9119;50.932;5.342;2023-01-29T17:50:56;3.50;99.90
17988;DHT22;9119;50.932;5.342;2023-01-29T17:53:23;3.60;99.90
17988;DHT22;9119;50.932;5.342;2023-01-29T17:55:49;3.70;99.90
17988;DHT22;9119;50.932;5.342;2023-01-29T18:00:42;3.70;99.90
17988;DHT22;9119;50.932;5.342;2023-01-29T18:03:08;3.70;99.90
17988;DHT22;9119;50.932;5.342;2023-01-29T18:05:33;3.80;99.90
17988;DHT22;9119;50.932;5.342;2023-01-29T18:08:00;3.70;99.90
17988;DHT22;9119;50.932;5.342;2023-01-29T18:10:27;3.80;99.90
17988;DHT22;9119;50.932;5.342;2023-01-29T18:12:53;3.70;99.90
17988;DHT22;9119;50.932;5.342;2023-01-29T18:15:18;3.70;99.90
17988;DHT22;9119;50.932;5.342;2023-01-29T18:17:44;3.90;99.90
17988;DHT22;9119;50.932;5.342;2023-01-29T18:20:23;3.70;99.90
17988;DHT22;9119;50.932;5.342;2023-01-29T18:22:50;3.90;99.90
17988;DHT22;9119;50.932;5.342;2023-01-29T18:25:16;3.60;99.90
17988;DHT22;9119;50.932;5.342;2023-01-29T18:27:47;3.70;99.90
17988;DHT22;9119;50.932;5.342;2023-01-29T18:30:14;3.70;99.90
17988;DHT22;9119;50.932;5.342;2023-01-29T18:32:40;3.70;99.90
17988;DHT22;9119;50.932;5.342;2023-01-29T18:35:06;3.70;99.90
17988;DHT22;9119;50.932;5.342;2023-01-29T18:37:32;3.70;99.90
17988;DHT22;9119;50.932;5.342;2023-01-29T18:39:58;3.60;99.90